Time,TemperatureF,DewpointF,PressureIn,WindDirection,WindDirectionDegrees,WindSpeedMPH,WindSpeedGustMPH,Humidity,HourlyPrecipIn,Conditions,Clouds,dailyrainin,SoftwareType,DateUTC
2013-05-25 00:01:00,42.1,30.8,30.21,NE,45,0.0,0.0,64,0.00,CLR,,0.00,WeatherDisplay:10.37,2013-05-25 04:01:00,
2013-05-25 00:02:00,42.1,30.8,30.21,NE,45,0.0,0.0,64,0.00,CLR,,0.00,WeatherDisplay:10.37,2013-05-25 04:02:00,
2013-05-25 00:03:00,42.1,30.8,30.21,NE,45,0.0,0.0,64,0.00,CLR,,0.00,WeatherDisplay:10.37,2013-05-25 04:03:00,
2013-05-25 00:04:00,42.1,30.8,30.21,NE,45,0.0,0.0,64,0.00,CLR,,0.00,WeatherDisplay:10.37,2013-05-25 04:04:00,
2013-05-25 00:06:00,42.1,31.2,30.21,ENE,68,0.0,0.0,65,0.00,CLR,,0.00,WeatherDisplay:10.37,2013-05-25 04:06:00,
2013-05-25 00:11:00,42.1,31.2,30.22,ENE,68,0.0,0.0,65,0.00,CLR,,0.00,WeatherDisplay:10.37,2013-05-25 04:11:00,
2013-05-25 00:16:00,42.1,31.2,30.22,NNE,22,0.0,0.0,65,0.00,CLR,,0.00,WeatherDisplay:10.37,2013-05-25 04:16:00,
2013-05-25 00:21:00,41.9,31.0,30.22,NNE,22,0.0,0.0,65,0.00,CLR,,0.00,WeatherDisplay:10.37,2013-05-25 04:21:00,
2013-05-25 00:26:00,41.9,31.0,30.22,NNE,22,0.0,0.0,65,0.00,CLR,,0.00,WeatherDisplay:10.37,2013-05-25 04:26:00,
2013-05-25 00:31:00,41.7,30.8,30.22,NNE,22,0.0,0.0,65,0.00,CLR,,0.00,WeatherDisplay:10.37,2013-05-25 04:31:00,
2013-05-25 00:36:00,41.5,30.6,30.22,ENE,68,0.0,0.0,65,0.00,CLR,,0.00,WeatherDisplay:10.37,2013-05-25 04:36:00,
2013-05-25 00:41:00,41.5,30.6,30.22,NE,45,8.1,8.1,65,0.00,CLR,,0.00,WeatherDisplay:10.37,2013-05-25 04:41:00,
2013-05-25 00:46:00,41.5,30.6,30.22,NE,45,0.0,0.0,65,0.00,CLR,,0.00,WeatherDisplay:10.37,2013-05-25 04:46:00,
2013-05-25 00:51:00,41.5,30.6,30.22,NE,45,0.0,0.0,65,0.00,CLR,,0.00,WeatherDisplay:10.37,2013-05-25 04:51:00,
2013-05-25 00:56:00,41.5,30.6,30.22,NE,45,0.0,0.0,65,0.00,CLR,,0.00,WeatherDisplay:10.37,2013-05-25 04:56:00,
2013-05-25 01:01:00,41.4,30.5,30.22,NE,45,0.0,0.0,65,0.00,CLR,,0.00,WeatherDisplay:10.37,2013-05-25 05:01:00,
2013-05-25 01:06:00,41.2,30.3,30.22,NNE,22,0.0,0.0,65,0.00,CLR,,0.00,WeatherDisplay:10.37,2013-05-25 05:06:00,
2013-05-25 01:11:00,41.2,30.3,30.22,NE,45,0.0,0.0,65,0.00,CLR,,0.00,WeatherDisplay:10.37,2013-05-25 05:11:00,
2013-05-25 01:16:00,41.2,30.3,30.22,NNE,22,0.0,0.0,65,0.00,CLR,,0.00,WeatherDisplay:10.37,2013-05-25 05:16:00,
2013-05-25 01:21:00,40.8,30.0,30.22,NNE,22,0.0,0.0,65,0.00,CLR,,0.00,WeatherDisplay:10.37,2013-05-25 05:21:00,
2013-05-25 01:26:00,40.8,30.0,30.22,NE,45,0.0,0.0,65,0.00,CLR,,0.00,WeatherDisplay:10.37,2013-05-25 05:26:00,
2013-05-25 01:31:00,40.8,30.0,30.22,NE,45,0.0,0.0,65,0.00,CLR,,0.00,WeatherDisplay:10.37,2013-05-25 05:31:00,
2013-05-25 01:36:00,40.6,29.8,30.22,NE,45,0.0,0.0,65,0.00,CLR,,0.00,WeatherDisplay:10.37,2013-05-25 05:36:00,
2013-05-25 01:41:00,40.6,29.8,30.22,NE,45,0.0,0.0,65,0.00,CLR,,0.00,WeatherDisplay:10.37,2013-05-25 05:41:00,
2013-05-25 01:46:00,40.5,29.6,30.22,NE,45,0.0,0.0,65,0.00,CLR,,0.00,WeatherDisplay:10.37,2013-05-25 05:46:00,
2013-05-25 01:51:00,40.3,29.4,30.22,NNE,22,0.0,0.0,65,0.00,CLR,,0.00,WeatherDisplay:10.37,2013-05-25 05:51:00,
2013-05-25 01:56:00,40.1,29.6,30.21,NE,45,0.0,0.0,66,0.00,CLR,,0.00,WeatherDisplay:10.37,2013-05-25 05:56:00,
2013-05-25 02:01:00,39.9,29.5,30.21,NE,45,0.0,0.0,66,0.00,CLR,,0.00,WeatherDisplay:10.37,2013-05-25 06:01:00,
2013-05-25 02:06:00,39.9,29.5,30.21,NE,45,0.0,0.0,66,0.00,CLR,,0.00,WeatherDisplay:10.37,2013-05-25 06:06:00,
2013-05-25 02:11:00,39.9,29.5,30.20,NNE,22,0.0,0.0,66,0.00,CLR,,0.00,WeatherDisplay:10.37,2013-05-25 06:11:00,
2013-05-25 02:16:00,39.7,29.3,30.21,NNE,22,0.0,0.0,66,0.00,CLR,,0.00,WeatherDisplay:10.37,2013-05-25 06:16:00,
2013-05-25 02:21:00,39.7,29.3,30.21,NNE,22,1.1,1.4,66,0.00,CLR,,0.00,WeatherDisplay:10.37,2013-05-25 06:21:00,
2013-05-25 02:26:00,39.4,29.3,30.21,NNE,22,0.0,0.0,67,0.00,CLR,,0.00,WeatherDisplay:10.37,2013-05-25 06:26:00,
2013-05-25 02:31:00,39.4,29.3,30.21,NNE,22,0.0,0.0,67,0.00,CLR,,0.00,WeatherDisplay:10.37,2013-05-25 06:31:00,
2013-05-25 02:36:00,39.4,29.3,30.21,NNE,22,0.0,0.0,67,0.00,CLR,,0.00,WeatherDisplay:10.37,2013-05-25 06:36:00,
2013-05-25 02:41:00,39.0,29.0,30.21,NNE,22,0.0,0.0,67,0.00,CLR,,0.00,WeatherDisplay:10.37,2013-05-25 06:41:00,
2013-05-25 02:46:00,38.8,28.8,30.21,NNE,22,0.0,0.0,67,0.00,CLR,,0.00,WeatherDisplay:10.37,2013-05-25 06:46:00,
2013-05-25 02:51:00,38.5,28.8,30.21,NNE,22,0.0,0.0,68,0.00,CLR,,0.00,WeatherDisplay:10.37,2013-05-25 06:51:00,
2013-05-25 02:56:00,38.3,28.7,30.21,NNE,22,0.0,0.0,68,0.00,CLR,,0.00,WeatherDisplay:10.37,2013-05-25 06:56:00,
2013-05-25 03:01:00,38.3,29.0,30.21,NNE,22,0.0,0.0,69,0.00,CLR,,0.00,WeatherDisplay:10.37,2013-05-25 07:01:00,
2013-05-25 03:06:00,38.1,28.8,30.21,NNE,22,0.0,0.0,69,0.00,CLR,,0.00,WeatherDisplay:10.37,2013-05-25 07:06:00,
2013-05-25 03:11:00,37.9,28.7,30.21,NNE,22,0.0,0.0,69,0.00,CLR,,0.00,WeatherDisplay:10.37,2013-05-25 07:11:00,
2013-05-25 03:16:00,37.8,28.5,30.21,ENE,68,0.0,0.0,69,0.00,CLR,,0.00,WeatherDisplay:10.37,2013-05-25 07:16:00,
2013-05-25 03:21:00,37.8,28.5,30.22,NE,45,0.0,0.0,69,0.00,CLR,,0.00,WeatherDisplay:10.37,2013-05-25 07:21:00,
2013-05-25 03:26:00,37.8,28.5,30.22,NE,45,0.0,0.0,69,0.00,CLR,,0.00,WeatherDisplay:10.37,2013-05-25 07:26:00,
2013-05-25 03:31:00,37.8,28.5,30.22,NE,45,0.0,0.0,69,0.00,CLR,,0.00,WeatherDisplay:10.37,2013-05-25 07:31:00,
2013-05-25 03:36:00,37.8,28.9,30.22,NE,45,0.0,0.0,70,0.00,CLR,,0.00,WeatherDisplay:10.37,2013-05-25 07:36:00,
2013-05-25 03:41:00,37.6,28.7,30.22,NE,45,0.0,0.0,70,0.00,CLR,,0.00,WeatherDisplay:10.37,2013-05-25 07:41:00,
2013-05-25 03:46:00,37.2,28.3,30.22,NE,45,0.0,0.0,70,0.00,CLR,,0.00,WeatherDisplay:10.37,2013-05-25 07:46:00,
2013-05-25 03:51:00,37.2,28.3,30.22,NE,45,0.0,0.0,70,0.00,CLR,,0.00,WeatherDisplay:10.37,2013-05-25 07:51:00,
2013-05-25 03:56:00,36.9,28.0,30.23,NE,45,0.0,0.0,70,0.00,CLR,,0.00,WeatherDisplay:10.37,2013-05-25 07:56:00,
2013-05-25 04:01:00,36.7,27.8,30.22,NE,45,0.0,0.0,70,0.00,CLR,,0.00,WeatherDisplay:10.37,2013-05-25 08:01:00,
2013-05-25 04:06:00,36.3,27.5,30.22,NE,45,0.0,0.0,70,0.00,CLR,,0.00,WeatherDisplay:10.37,2013-05-25 08:06:00,
2013-05-25 04:11:00,36.1,27.3,30.22,NE,45,0.0,0.0,70,0.00,CLR,,0.00,WeatherDisplay:10.37,2013-05-25 08:11:00,
2013-05-25 04:16:00,35.8,26.9,30.22,NE,45,0.0,0.0,70,0.00,CLR,,0.00,WeatherDisplay:10.37,2013-05-25 08:16:00,
2013-05-25 04:21:00,35.8,26.9,30.23,NE,45,0.0,0.0,70,0.00,CLR,,0.00,WeatherDisplay:10.37,2013-05-25 08:21:00,
2013-05-25 04:26:00,35.4,26.9,30.23,NE,45,0.0,0.0,71,0.00,CLR,,0.00,WeatherDisplay:10.37,2013-05-25 08:26:00,
2013-05-25 04:31:00,35.2,26.8,30.23,NE,45,0.0,0.0,71,0.00,CLR,,0.00,WeatherDisplay:10.37,2013-05-25 08:31:00,
2013-05-25 04:36:00,34.9,26.4,30.23,NE,45,0.0,0.0,71,0.00,CLR,,0.00,WeatherDisplay:10.37,2013-05-25 08:36:00,
2013-05-25 04:41:00,34.7,26.3,30.23,NE,45,0.0,0.0,71,0.00,CLR,,0.00,WeatherDisplay:10.37,2013-05-25 08:41:00,
2013-05-25 04:46:00,34.3,26.2,30.22,NE,45,0.0,0.0,72,0.00,CLR,,0.00,WeatherDisplay:10.37,2013-05-25 08:46:00,
2013-05-25 04:51:00,34.3,26.2,30.23,NE,45,0.0,0.0,72,0.00,CLR,,0.00,WeatherDisplay:10.37,2013-05-25 08:51:00,
2013-05-25 04:56:00,34.3,26.2,30.23,NE,45,0.0,0.0,72,0.00,CLR,,0.00,WeatherDisplay:10.37,2013-05-25 08:56:00,
2013-05-25 05:01:00,34.2,26.4,30.23,NE,45,0.0,0.0,73,0.00,CLR,,0.00,WeatherDisplay:10.37,2013-05-25 09:01:00,
2013-05-25 05:06:00,34.0,26.2,30.24,NE,45,0.0,0.0,73,0.00,CLR,,0.00,WeatherDisplay:10.37,2013-05-25 09:06:00,
2013-05-25 05:11:00,33.6,25.9,30.23,NE,45,0.0,0.0,73,0.00,CLR,,0.00,WeatherDisplay:10.37,2013-05-25 09:11:00,
2013-05-25 05:16:00,33.6,25.9,30.23,NE,45,0.0,0.0,73,0.00,CLR,,0.00,WeatherDisplay:10.37,2013-05-25 09:16:00,
2013-05-25 05:21:00,33.6,25.9,30.23,NE,45,0.0,0.0,73,0.00,CLR,,0.00,WeatherDisplay:10.37,2013-05-25 09:21:00,
2013-05-25 05:26:00,33.3,25.9,30.24,NE,45,0.0,0.0,74,0.00,CLR,,0.00,WeatherDisplay:10.37,2013-05-25 09:26:00,
2013-05-25 05:31:00,33.1,25.7,30.24,NE,45,0.0,0.0,74,0.00,CLR,,0.00,WeatherDisplay:10.37,2013-05-25 09:31:00,
2013-05-25 05:36:00,33.1,25.7,30.24,NE,45,0.0,0.0,74,0.00,CLR,,0.00,WeatherDisplay:10.37,2013-05-25 09:36:00,
2013-05-25 05:41:00,32.9,25.5,30.24,NE,45,0.0,0.0,74,0.00,CLR,,0.00,WeatherDisplay:10.37,2013-05-25 09:41:00,
2013-05-25 05:46:00,32.7,25.3,30.24,NE,45,0.0,0.0,74,0.00,CLR,,0.00,WeatherDisplay:10.37,2013-05-25 09:46:00,
2013-05-25 05:51:00,32.7,25.3,30.24,NE,45,0.0,0.0,74,0.00,CLR,,0.00,WeatherDisplay:10.37,2013-05-25 09:51:00,
2013-05-25 05:56:00,32.7,25.7,30.24,NE,45,0.0,0.0,75,0.00,CLR,,0.00,WeatherDisplay:10.37,2013-05-25 09:56:00,
2013-05-25 06:01:00,32.5,25.5,30.24,NE,45,0.0,0.0,75,0.00,CLR,,0.00,WeatherDisplay:10.37,2013-05-25 10:01:00,
2013-05-25 06:06:00,32.4,25.3,30.25,NE,45,0.0,0.0,75,0.00,CLR,,0.00,WeatherDisplay:10.37,2013-05-25 10:06:00,
2013-05-25 06:11:00,32.4,25.6,30.25,NE,45,0.0,0.0,76,0.00,CLR,,0.00,WeatherDisplay:10.37,2013-05-25 10:11:00,
2013-05-25 06:16:00,32.4,25.6,30.25,NE,45,0.0,0.0,76,0.00,CLR,,0.00,WeatherDisplay:10.37,2013-05-25 10:16:00,
2013-05-25 06:21:00,32.4,25.6,30.25,NE,45,0.0,0.0,76,0.00,CLR,,0.00,WeatherDisplay:10.37,2013-05-25 10:21:00,
2013-05-25 06:26:00,32.4,25.6,30.26,NE,45,0.0,0.0,76,0.00,CLR,,0.00,WeatherDisplay:10.37,2013-05-25 10:26:00,
2013-05-25 06:31:00,32.4,25.6,30.25,NE,45,0.0,0.0,76,0.00,CLR,,0.00,WeatherDisplay:10.37,2013-05-25 10:31:00,
2013-05-25 06:36:00,32.4,25.6,30.25,NE,45,0.0,0.0,76,0.00,CLR,,0.00,WeatherDisplay:10.37,2013-05-25 10:36:00,
2013-05-25 06:41:00,32.4,26.0,30.25,NE,45,0.0,0.0,77,0.00,CLR,,0.00,WeatherDisplay:10.37,2013-05-25 10:41:00,
2013-05-25 06:46:00,32.5,26.1,30.25,NE,45,0.0,0.0,77,0.00,CLR,,0.00,WeatherDisplay:10.37,2013-05-25 10:46:00,
2013-05-25 06:51:00,32.5,26.1,30.26,NE,45,0.0,0.0,77,0.00,CLR,,0.00,WeatherDisplay:10.37,2013-05-25 10:51:00,
2013-05-25 06:56:00,32.7,26.3,30.27,NE,45,0.0,0.0,77,0.00,CLR,,0.00,WeatherDisplay:10.37,2013-05-25 10:56:00,
2013-05-25 07:01:00,32.7,26.3,30.27,NE,45,0.0,0.0,77,0.00,CLR,,0.00,WeatherDisplay:10.37,2013-05-25 11:01:00,
2013-05-25 07:06:00,33.1,27.0,30.26,NE,45,0.0,0.0,78,0.00,CLR,,0.00,WeatherDisplay:10.37,2013-05-25 11:06:00,
2013-05-25 07:11:00,33.3,27.1,30.26,NE,45,0.0,0.0,78,0.00,CLR,,0.00,WeatherDisplay:10.37,2013-05-25 11:11:00,
2013-05-25 07:16:00,33.6,27.8,30.27,NE,45,0.0,0.0,79,0.00,CLR,,0.00,WeatherDisplay:10.37,2013-05-25 11:16:00,
2013-05-25 07:21:00,34.0,28.2,30.26,NE,45,0.0,0.0,79,0.00,CLR,,0.00,WeatherDisplay:10.37,2013-05-25 11:21:00,
2013-05-25 07:26:00,34.3,28.5,30.27,NE,45,0.0,0.0,79,0.00,CLR,,0.00,WeatherDisplay:10.37,2013-05-25 11:26:00,
2013-05-25 07:31:00,34.3,28.8,30.27,NE,45,0.0,0.0,80,0.00,CLR,,0.00,WeatherDisplay:10.37,2013-05-25 11:31:00,
2013-05-25 07:36:00,35.2,29.7,30.27,NE,45,0.0,0.0,80,0.00,CLR,,0.00,WeatherDisplay:10.37,2013-05-25 11:36:00,
2013-05-25 07:41:00,35.4,29.9,30.27,NE,45,0.0,0.0,80,0.00,CLR,,0.00,WeatherDisplay:10.37,2013-05-25 11:41:00,
2013-05-25 07:46:00,36.1,30.9,30.27,NE,45,0.0,0.0,81,0.00,CLR,,0.00,WeatherDisplay:10.37,2013-05-25 11:46:00,
2013-05-25 07:51:00,36.5,31.2,30.27,NE,45,0.0,0.0,81,0.00,CLR,,0.00,WeatherDisplay:10.37,2013-05-25 11:51:00,
2013-05-25 07:56:00,37.0,31.8,30.27,ENE,68,0.0,0.0,81,0.00,CLR,,0.00,WeatherDisplay:10.37,2013-05-25 11:56:00,
2013-05-25 08:01:00,37.2,31.6,30.27,NE,45,0.0,0.0,80,0.00,CLR,,0.00,WeatherDisplay:10.37,2013-05-25 12:01:00,
2013-05-25 08:06:00,38.3,32.4,30.27,NE,45,2.3,2.3,79,0.00,CLR,,0.00,WeatherDisplay:10.37,2013-05-25 12:06:00,
2013-05-25 08:11:00,38.5,32.5,30.27,NE,45,0.0,0.0,79,0.00,CLR,,0.00,WeatherDisplay:10.37,2013-05-25 12:11:00,
2013-05-25 08:16:00,39.0,32.7,30.27,NE,45,0.0,0.2,78,0.00,CLR,,0.00,WeatherDisplay:10.37,2013-05-25 12:16:00,
2013-05-25 08:21:00,39.9,33.6,30.27,NE,45,0.0,0.0,78,0.00,CLR,,0.00,WeatherDisplay:10.37,2013-05-25 12:21:00,
2013-05-25 08:26:00,40.5,33.5,30.26,NE,45,0.0,0.0,76,0.00,CLR,,0.00,WeatherDisplay:10.37,2013-05-25 12:26:00,
2013-05-25 08:31:00,41.0,34.0,30.26,NNE,22,1.1,1.3,76,0.00,CLR,,0.00,WeatherDisplay:10.37,2013-05-25 12:31:00,
2013-05-25 08:36:00,41.4,34.0,30.26,NNE,22,0.0,0.0,75,0.00,CLR,,0.00,WeatherDisplay:10.37,2013-05-25 12:36:00,
2013-05-25 08:41:00,42.1,34.4,30.25,NNE,22,0.0,0.0,74,0.00,CLR,,0.00,WeatherDisplay:10.37,2013-05-25 12:41:00,
2013-05-25 08:46:00,42.4,34.4,30.25,NNE,22,0.0,0.3,73,0.00,CLR,,0.00,WeatherDisplay:10.37,2013-05-25 12:46:00,
2013-05-25 08:51:00,43.0,34.9,30.25,NNE,22,0.0,0.0,73,0.00,CLR,,0.00,WeatherDisplay:10.37,2013-05-25 12:51:00,
2013-05-25 08:56:00,43.5,35.1,30.25,NE,45,0.0,0.0,72,0.00,CLR,,0.00,WeatherDisplay:10.37,2013-05-25 12:56:00,
2013-05-25 09:01:00,44.1,35.3,30.24,NW,315,0.0,0.0,71,0.00,CLR,,0.00,WeatherDisplay:10.37,2013-05-25 13:01:00,
2013-05-25 09:06:00,45.0,36.1,30.24,NE,45,0.0,0.0,71,0.00,CLR,,0.00,WeatherDisplay:10.37,2013-05-25 13:06:00,
2013-05-25 09:11:00,45.3,36.1,30.24,NE,45,0.0,0.0,70,0.00,CLR,,0.00,WeatherDisplay:10.37,2013-05-25 13:11:00,
2013-05-25 09:16:00,46.2,36.6,30.24,NE,45,0.0,0.0,69,0.00,CLR,,0.00,WeatherDisplay:10.37,2013-05-25 13:16:00,
2013-05-25 09:22:00,46.9,36.9,30.24,NNE,22,3.5,3.5,68,0.00,CLR,,0.00,WeatherDisplay:10.37,2013-05-25 13:22:00,
2013-05-25 09:27:00,47.5,36.7,30.24,North,0,5.8,5.8,66,0.00,CLR,,0.00,WeatherDisplay:10.37,2013-05-25 13:27:00,
2013-05-25 09:32:00,47.7,36.5,30.23,ENE,68,0.0,0.0,65,0.00,CLR,,0.00,WeatherDisplay:10.37,2013-05-25 13:32:00,
2013-05-25 09:37:00,48.0,36.4,30.23,WNW,292,0.0,0.0,64,0.00,CLR,,0.00,WeatherDisplay:10.37,2013-05-25 13:37:00,
2013-05-25 09:42:00,48.4,36.4,30.23,NE,45,0.0,0.0,63,0.00,CLR,,0.00,WeatherDisplay:10.37,2013-05-25 13:42:00,
2013-05-25 09:47:00,48.7,36.7,30.23,NNE,22,0.0,0.0,63,0.00,CLR,,0.00,WeatherDisplay:10.37,2013-05-25 13:47:00,
2013-05-25 09:52:00,48.9,36.5,30.23,NE,45,0.0,0.0,62,0.00,CLR,,0.00,WeatherDisplay:10.37,2013-05-25 13:52:00,
2013-05-25 09:57:00,49.3,36.8,30.23,NNE,22,0.0,0.0,62,0.00,CLR,,0.00,WeatherDisplay:10.37,2013-05-25 13:57:00,
2013-05-25 10:02:00,49.8,36.9,30.23,NE,45,0.0,0.0,61,0.00,CLR,,0.00,WeatherDisplay:10.37,2013-05-25 14:02:00,
2013-05-25 10:07:00,50.2,36.8,30.23,NE,45,0.0,0.0,60,0.00,CLR,,0.00,WeatherDisplay:10.37,2013-05-25 14:07:00,
2013-05-25 10:12:00,50.4,37.0,30.23,NNE,22,0.0,0.0,60,0.00,CLR,,0.00,WeatherDisplay:10.37,2013-05-25 14:12:00,
2013-05-25 10:17:00,50.5,36.7,30.23,NW,315,0.0,0.0,59,0.00,CLR,,0.00,WeatherDisplay:10.37,2013-05-25 14:17:00,
2013-05-25 10:22:00,50.7,36.5,30.22,WNW,292,0.0,0.0,58,0.00,CLR,,0.00,WeatherDisplay:10.37,2013-05-25 14:22:00,
2013-05-25 10:27:00,50.9,36.6,30.22,NNE,22,3.5,3.6,58,0.00,CLR,,0.00,WeatherDisplay:10.37,2013-05-25 14:27:00,
2013-05-25 10:32:00,51.1,36.4,30.22,NNW,338,0.0,0.0,57,0.00,CLR,,0.00,WeatherDisplay:10.37,2013-05-25 14:32:00,
2013-05-25 10:37:00,51.6,36.9,30.23,NW,315,0.0,0.0,57,0.00,CLR,,0.00,WeatherDisplay:10.37,2013-05-25 14:37:00,
2013-05-25 10:42:00,52.0,37.2,30.23,North,0,0.0,0.0,57,0.00,CLR,,0.00,WeatherDisplay:10.37,2013-05-25 14:42:00,
2013-05-25 10:47:00,52.0,36.8,30.24,North,0,3.5,3.5,56,0.00,CLR,,0.00,WeatherDisplay:10.37,2013-05-25 14:47:00,
2013-05-25 10:52:00,52.2,36.5,30.23,North,0,0.0,0.0,55,0.00,CLR,,0.00,WeatherDisplay:10.37,2013-05-25 14:52:00,
2013-05-25 10:57:00,52.3,37.1,30.23,East,90,0.0,0.0,56,0.00,CLR,,0.00,WeatherDisplay:10.37,2013-05-25 14:57:00,
2013-05-25 11:02:00,52.5,37.3,30.22,NNE,22,0.0,0.0,56,0.00,CLR,,0.00,WeatherDisplay:10.37,2013-05-25 15:02:00,
2013-05-25 11:07:00,52.9,37.1,30.22,WNW,292,0.0,0.0,55,0.00,CLR,,0.00,WeatherDisplay:10.37,2013-05-25 15:07:00,
2013-05-25 11:12:00,53.2,37.5,30.22,NW,315,0.0,0.0,55,0.00,CLR,,0.00,WeatherDisplay:10.37,2013-05-25 15:12:00,
2013-05-25 11:17:00,53.4,37.6,30.22,SSW,202,0.0,0.0,55,0.00,CLR,,0.00,WeatherDisplay:10.37,2013-05-25 15:17:00,
2013-05-25 11:22:00,53.4,37.2,30.22,South,180,0.0,0.0,54,0.00,CLR,,0.00,WeatherDisplay:10.37,2013-05-25 15:22:00,
2013-05-25 11:27:00,54.0,37.7,30.23,ENE,68,0.0,0.0,54,0.00,CLR,,0.00,WeatherDisplay:10.37,2013-05-25 15:27:00,
2013-05-25 11:32:00,54.3,38.0,30.23,NNE,22,0.0,0.0,54,0.00,CLR,,0.00,WeatherDisplay:10.37,2013-05-25 15:32:00,
2013-05-25 11:37:00,54.5,37.7,30.23,NW,315,0.0,0.0,53,0.00,CLR,,0.00,WeatherDisplay:10.37,2013-05-25 15:37:00,
2013-05-25 11:42:00,55.0,37.7,30.22,North,0,0.0,0.0,52,0.00,CLR,,0.00,WeatherDisplay:10.37,2013-05-25 15:42:00,
2013-05-25 11:47:00,55.2,38.4,30.22,North,0,0.0,0.0,53,0.00,CLR,,0.00,WeatherDisplay:10.37,2013-05-25 15:47:00,
2013-05-25 11:52:00,55.4,38.5,30.22,SSW,202,0.0,0.0,53,0.00,CLR,,0.00,WeatherDisplay:10.37,2013-05-25 15:52:00,
2013-05-25 11:57:00,56.1,38.7,30.22,East,90,0.0,0.0,52,0.00,CLR,,0.00,WeatherDisplay:10.37,2013-05-25 15:57:00,
2013-05-25 12:02:00,56.8,39.9,30.22,ENE,68,0.0,0.0,53,0.00,CLR,,0.00,WeatherDisplay:10.37,2013-05-25 16:02:00,
2013-05-25 12:07:00,57.4,39.9,30.22,NE,45,0.0,0.0,52,0.00,CLR,,0.00,WeatherDisplay:10.37,2013-05-25 16:07:00,
2013-05-25 12:12:00,57.9,39.9,30.22,WNW,292,4.6,4.6,51,0.00,CLR,,0.00,WeatherDisplay:10.37,2013-05-25 16:12:00,
2013-05-25 12:17:00,58.6,40.0,30.22,West,270,0.0,0.0,50,0.00,CLR,,0.00,WeatherDisplay:10.37,2013-05-25 16:17:00,
2013-05-25 12:22:00,58.8,39.7,30.22,SW,225,0.0,0.0,49,0.00,CLR,,0.00,WeatherDisplay:10.37,2013-05-25 16:22:00,
2013-05-25 12:27:00,58.8,39.2,30.21,NW,315,5.8,5.8,48,0.00,CLR,,0.00,WeatherDisplay:10.37,2013-05-25 16:27:00,
2013-05-25 12:32:00,58.8,38.6,30.21,WNW,292,5.8,5.9,47,0.00,CLR,,0.00,WeatherDisplay:10.37,2013-05-25 16:32:00,
2013-05-25 12:37:00,58.8,39.2,30.21,WNW,292,0.0,0.0,48,0.00,CLR,,0.00,WeatherDisplay:10.37,2013-05-25 16:37:00,
2013-05-25 12:42:00,59.5,39.8,30.21,NE,45,1.1,1.1,48,0.00,CLR,,0.00,WeatherDisplay:10.37,2013-05-25 16:42:00,
2013-05-25 12:47:00,59.5,39.3,30.21,North,0,6.9,6.9,47,0.00,CLR,,0.00,WeatherDisplay:10.37,2013-05-25 16:47:00,
2013-05-25 12:52:00,60.4,40.1,30.21,North,0,3.5,3.5,47,0.00,CLR,,0.00,WeatherDisplay:10.37,2013-05-25 16:52:00,
2013-05-25 12:57:00,60.6,39.7,30.21,North,0,6.9,6.9,46,0.00,CLR,,0.00,WeatherDisplay:10.37,2013-05-25 16:57:00,
2013-05-25 13:02:00,60.6,39.7,30.21,NW,315,4.6,0.0,46,0.00,CLR,,0.00,WeatherDisplay:10.37,2013-05-25 17:02:00,
2013-05-25 13:07:00,61.0,38.9,30.20,NNE,22,9.2,9.2,44,0.00,CLR,,0.00,WeatherDisplay:10.37,2013-05-25 17:07:00,
2013-05-25 13:12:00,61.3,39.8,30.20,NNE,22,5.8,5.8,45,0.00,CLR,,0.00,WeatherDisplay:10.37,2013-05-25 17:12:00,
2013-05-25 13:17:00,61.5,40.0,30.20,NE,45,11.8,11.8,45,0.00,CLR,,0.00,WeatherDisplay:10.37,2013-05-25 17:17:00,
2013-05-25 13:22:00,61.7,39.6,30.19,NNE,22,0.0,0.0,44,0.00,CLR,,0.00,WeatherDisplay:10.37,2013-05-25 17:22:00,
2013-05-25 13:27:00,61.9,39.7,30.19,NW,315,8.1,8.1,44,0.00,CLR,,0.00,WeatherDisplay:10.37,2013-05-25 17:27:00,
2013-05-25 13:32:00,61.9,39.1,30.19,NNE,22,1.1,1.1,43,0.00,CLR,,0.00,WeatherDisplay:10.37,2013-05-25 17:32:00,
2013-05-25 13:37:00,62.2,39.5,30.18,NNE,22,10.4,10.4,43,0.00,CLR,,0.00,WeatherDisplay:10.37,2013-05-25 17:37:00,
2013-05-25 13:42:00,62.4,39.6,30.18,North,0,4.6,4.7,43,0.00,CLR,,0.00,WeatherDisplay:10.37,2013-05-25 17:42:00,
2013-05-25 13:47:00,62.8,39.3,30.18,NW,315,4.6,4.6,42,0.00,CLR,,0.00,WeatherDisplay:10.37,2013-05-25 17:47:00,
2013-05-25 13:52:00,63.1,39.0,30.18,NE,45,6.9,7.4,41,0.00,CLR,,0.00,WeatherDisplay:10.37,2013-05-25 17:52:00,
2013-05-25 13:57:00,63.1,38.4,30.18,NE,45,12.7,12.7,40,0.00,CLR,,0.00,WeatherDisplay:10.37,2013-05-25 17:57:00,
2013-05-25 14:02:00,63.1,37.8,30.19,NW,315,16.1,16.1,39,0.00,CLR,,0.00,WeatherDisplay:10.37,2013-05-25 18:02:00,
2013-05-25 14:07:00,63.1,36.4,30.18,WNW,292,5.8,5.8,37,0.00,CLR,,0.00,WeatherDisplay:10.37,2013-05-25 18:07:00,
2013-05-25 14:12:00,62.8,35.4,30.18,NW,315,12.7,12.7,36,0.00,CLR,,0.00,WeatherDisplay:10.37,2013-05-25 18:12:00,
2013-05-25 14:17:00,62.8,35.4,30.18,North,0,5.8,5.8,36,0.00,CLR,,0.00,WeatherDisplay:10.37,2013-05-25 18:17:00,
2013-05-25 14:22:00,62.6,34.5,30.17,North,0,11.5,11.5,35,0.00,CLR,,0.00,WeatherDisplay:10.37,2013-05-25 18:22:00,
2013-05-25 14:27:00,62.8,35.4,30.17,NNE,22,11.5,11.5,36,0.00,CLR,,0.00,WeatherDisplay:10.37,2013-05-25 18:27:00,
2013-05-25 14:32:00,63.1,35.0,30.17,NNE,22,3.5,3.5,35,0.00,CLR,,0.00,WeatherDisplay:10.37,2013-05-25 18:32:00,
2013-05-25 14:37:00,63.1,35.0,30.17,North,0,3.5,3.9,35,0.00,CLR,,0.00,WeatherDisplay:10.37,2013-05-25 18:37:00,
2013-05-25 14:42:00,63.3,35.9,30.17,NW,315,6.0,6.0,36,0.00,CLR,,0.00,WeatherDisplay:10.37,2013-05-25 18:42:00,
2013-05-25 14:47:00,63.5,36.0,30.17,NW,315,0.0,0.0,36,0.00,CLR,,0.00,WeatherDisplay:10.37,2013-05-25 18:47:00,
2013-05-25 14:52:00,63.7,35.5,30.17,WSW,248,1.1,0.0,35,0.00,CLR,,0.00,WeatherDisplay:10.37,2013-05-25 18:52:00,
2013-05-25 14:57:00,64.0,37.2,30.17,NNE,22,6.9,6.9,37,0.00,CLR,,0.00,WeatherDisplay:10.37,2013-05-25 18:57:00,
2013-05-25 15:02:00,64.0,37.2,30.17,NNW,338,9.2,9.2,37,0.00,CLR,,0.00,WeatherDisplay:10.37,2013-05-25 19:02:00,
2013-05-25 15:07:00,64.2,36.7,30.17,North,0,12.7,12.7,36,0.00,CLR,,0.00,WeatherDisplay:10.37,2013-05-25 19:07:00,
2013-05-25 15:12:00,64.4,37.5,30.17,NNW,338,11.5,11.5,37,0.00,CLR,,0.00,WeatherDisplay:10.37,2013-05-25 19:12:00,
2013-05-25 15:17:00,64.6,37.7,30.17,NNW,338,11.5,11.5,37,0.00,CLR,,0.00,WeatherDisplay:10.37,2013-05-25 19:17:00,
2013-05-25 15:22:00,64.6,37.7,30.17,North,0,7.2,7.2,37,0.00,CLR,,0.00,WeatherDisplay:10.37,2013-05-25 19:22:00,
2013-05-25 15:27:00,64.2,36.7,30.17,WNW,292,11.5,11.5,36,0.00,CLR,,0.00,WeatherDisplay:10.37,2013-05-25 19:27:00,
2013-05-25 15:32:00,64.2,36.7,30.17,NNE,22,10.4,10.4,36,0.00,CLR,,0.00,WeatherDisplay:10.37,2013-05-25 19:32:00,
2013-05-25 15:37:00,64.2,36.7,30.17,NE,45,5.8,5.8,36,0.00,CLR,,0.00,WeatherDisplay:10.37,2013-05-25 19:37:00,
2013-05-25 15:42:00,64.6,38.4,30.17,NNW,338,5.8,5.8,38,0.00,CLR,,0.00,WeatherDisplay:10.37,2013-05-25 19:42:00,
2013-05-25 15:47:00,64.8,38.5,30.17,NE,45,5.8,5.8,38,0.00,CLR,,0.00,WeatherDisplay:10.37,2013-05-25 19:47:00,
2013-05-25 15:52:00,64.9,38.7,30.17,North,0,6.9,6.9,38,0.00,CLR,,0.00,WeatherDisplay:10.37,2013-05-25 19:52:00,
2013-05-25 15:57:00,65.3,39.7,30.17,North,0,0.0,0.0,39,0.00,CLR,,0.00,WeatherDisplay:10.37,2013-05-25 19:57:00,
2013-05-25 16:03:00,65.5,39.9,30.17,NNE,22,4.6,4.6,39,0.00,CLR,,0.00,WeatherDisplay:10.37,2013-05-25 20:03:00,
2013-05-25 16:08:00,65.3,39.7,30.17,West,270,5.8,5.8,39,0.00,CLR,,0.00,WeatherDisplay:10.37,2013-05-25 20:08:00,
2013-05-25 16:13:00,65.1,38.9,30.17,North,0,0.0,0.0,38,0.00,CLR,,0.00,WeatherDisplay:10.37,2013-05-25 20:13:00,
2013-05-25 16:18:00,65.3,39.7,30.17,NE,45,0.0,0.0,39,0.00,CLR,,0.00,WeatherDisplay:10.37,2013-05-25 20:18:00,
2013-05-25 16:23:00,65.5,39.9,30.17,NNE,22,5.8,5.8,39,0.00,CLR,,0.00,WeatherDisplay:10.37,2013-05-25 20:23:00,
2013-05-25 16:28:00,65.7,40.0,30.17,North,0,8.1,8.1,39,0.00,CLR,,0.00,WeatherDisplay:10.37,2013-05-25 20:28:00,
2013-05-25 16:33:00,66.0,41.0,30.16,NW,315,5.8,0.0,40,0.00,CLR,,0.00,WeatherDisplay:10.37,2013-05-25 20:33:00,
2013-05-25 16:38:00,66.0,39.7,30.16,North,0,0.0,0.0,38,0.00,CLR,,0.00,WeatherDisplay:10.37,2013-05-25 20:38:00,
2013-05-25 16:43:00,66.0,39.7,30.16,NNE,22,2.9,2.9,38,0.00,CLR,,0.00,WeatherDisplay:10.37,2013-05-25 20:43:00,
2013-05-25 16:48:00,66.2,39.8,30.16,North,0,8.1,8.1,38,0.00,CLR,,0.00,WeatherDisplay:10.37,2013-05-25 20:48:00,
2013-05-25 16:53:00,66.0,39.0,30.17,NW,315,6.9,6.9,37,0.00,CLR,,0.00,WeatherDisplay:10.37,2013-05-25 20:53:00,
2013-05-25 16:58:00,65.7,38.7,30.17,NNE,22,11.5,11.5,37,0.00,CLR,,0.00,WeatherDisplay:10.37,2013-05-25 20:58:00,
2013-05-25 17:03:00,65.3,38.3,30.17,WNW,292,4.6,5.1,37,0.00,CLR,,0.00,WeatherDisplay:10.37,2013-05-25 21:03:00,
2013-05-25 17:08:00,65.3,39.0,30.16,West,270,4.7,4.7,38,0.00,CLR,,0.00,WeatherDisplay:10.37,2013-05-25 21:08:00,
2013-05-25 17:13:00,65.1,38.2,30.16,NE,45,3.5,3.5,37,0.00,CLR,,0.00,WeatherDisplay:10.37,2013-05-25 21:13:00,
2013-05-25 17:18:00,65.1,38.2,30.16,NNW,338,5.8,5.8,37,0.00,CLR,,0.00,WeatherDisplay:10.37,2013-05-25 21:18:00,
2013-05-25 17:23:00,64.9,38.0,30.17,NW,315,5.8,5.8,37,0.00,CLR,,0.00,WeatherDisplay:10.37,2013-05-25 21:23:00,
2013-05-25 17:28:00,64.9,37.3,30.17,NNW,338,0.0,0.0,36,0.00,CLR,,0.00,WeatherDisplay:10.37,2013-05-25 21:28:00,
2013-05-25 17:33:00,64.9,38.0,30.17,WNW,292,0.0,6.0,37,0.00,CLR,,0.00,WeatherDisplay:10.37,2013-05-25 21:33:00,
2013-05-25 17:38:00,64.9,38.0,30.18,West,270,4.6,4.6,37,0.00,CLR,,0.00,WeatherDisplay:10.37,2013-05-25 21:38:00,
2013-05-25 17:43:00,64.6,37.0,30.18,WNW,292,0.0,0.0,36,0.00,CLR,,0.00,WeatherDisplay:10.37,2013-05-25 21:43:00,
2013-05-25 17:48:00,64.2,36.7,30.18,NE,45,5.8,5.8,36,0.00,CLR,,0.00,WeatherDisplay:10.37,2013-05-25 21:48:00,
2013-05-25 17:53:00,64.2,36.7,30.17,NNE,22,5.8,0.0,36,0.00,CLR,,0.00,WeatherDisplay:10.37,2013-05-25 21:53:00,
2013-05-25 17:58:00,64.2,37.4,30.18,NNE,22,0.0,0.5,37,0.00,CLR,,0.00,WeatherDisplay:10.37,2013-05-25 21:58:00,
2013-05-25 18:03:00,64.2,37.4,30.18,NE,45,3.5,3.5,37,0.00,CLR,,0.00,WeatherDisplay:10.37,2013-05-25 22:03:00,
2013-05-25 18:08:00,63.9,37.1,30.17,North,0,5.8,0.0,37,0.00,CLR,,0.00,WeatherDisplay:10.37,2013-05-25 22:08:00,
2013-05-25 18:13:00,63.7,36.9,30.17,North,0,5.8,5.8,37,0.00,CLR,,0.00,WeatherDisplay:10.37,2013-05-25 22:13:00,
2013-05-25 18:18:00,63.7,37.6,30.18,NE,45,5.8,5.8,38,0.00,CLR,,0.00,WeatherDisplay:10.37,2013-05-25 22:18:00,
2013-05-25 18:23:00,63.7,38.2,30.17,NNE,22,0.0,0.0,39,0.00,CLR,,0.00,WeatherDisplay:10.37,2013-05-25 22:23:00,
2013-05-25 18:28:00,63.7,37.6,30.17,North,0,1.3,1.3,38,0.00,CLR,,0.00,WeatherDisplay:10.37,2013-05-25 22:28:00,
2013-05-25 18:33:00,63.7,38.2,30.17,North,0,3.5,3.5,39,0.00,CLR,,0.00,WeatherDisplay:10.37,2013-05-25 22:33:00,
2013-05-25 18:38:00,63.9,38.4,30.17,North,0,11.5,11.5,39,0.00,CLR,,0.00,WeatherDisplay:10.37,2013-05-25 22:38:00,
2013-05-25 18:43:00,63.3,37.3,30.17,NNE,22,1.1,1.1,38,0.00,CLR,,0.00,WeatherDisplay:10.37,2013-05-25 22:43:00,
2013-05-25 18:48:00,63.1,37.1,30.17,NW,315,0.0,1.2,38,0.00,CLR,,0.00,WeatherDisplay:10.37,2013-05-25 22:48:00,
2013-05-25 18:53:00,63.0,37.6,30.18,North,0,0.0,0.0,39,0.00,CLR,,0.00,WeatherDisplay:10.37,2013-05-25 22:53:00,
2013-05-25 18:58:00,63.0,37.6,30.18,North,0,4.6,4.7,39,0.00,CLR,,0.00,WeatherDisplay:10.37,2013-05-25 22:58:00,
2013-05-25 19:03:00,62.4,37.1,30.18,NNE,22,5.8,5.8,39,0.00,CLR,,0.00,WeatherDisplay:10.37,2013-05-25 23:03:00,
2013-05-25 19:08:00,62.1,36.8,30.18,North,0,3.5,0.0,39,0.00,CLR,,0.00,WeatherDisplay:10.37,2013-05-25 23:08:00,
2013-05-25 19:13:00,61.9,36.6,30.18,NW,315,2.3,2.7,39,0.00,CLR,,0.00,WeatherDisplay:10.37,2013-05-25 23:13:00,
2013-05-25 19:18:00,61.7,36.5,30.19,NNW,338,2.3,2.3,39,0.00,CLR,,0.00,WeatherDisplay:10.37,2013-05-25 23:18:00,
2013-05-25 19:23:00,61.3,36.8,30.19,NW,315,4.6,0.0,40,0.00,CLR,,0.00,WeatherDisplay:10.37,2013-05-25 23:23:00,
2013-05-25 19:28:00,61.2,36.6,30.19,NW,315,5.8,6.0,40,0.00,CLR,,0.00,WeatherDisplay:10.37,2013-05-25 23:28:00,
2013-05-25 19:33:00,60.6,36.1,30.19,North,0,0.0,0.0,40,0.00,CLR,,0.00,WeatherDisplay:10.37,2013-05-25 23:33:00,
2013-05-25 19:38:00,60.4,36.0,30.19,NNE,22,0.0,0.0,40,0.00,CLR,,0.00,WeatherDisplay:10.37,2013-05-25 23:38:00,
2013-05-25 19:43:00,60.3,36.4,30.19,NW,315,0.0,0.0,41,0.00,CLR,,0.00,WeatherDisplay:10.37,2013-05-25 23:43:00,
2013-05-25 19:48:00,60.1,36.3,30.19,North,0,1.1,1.1,41,0.00,CLR,,0.00,WeatherDisplay:10.37,2013-05-25 23:48:00,
2013-05-25 19:53:00,59.9,36.1,30.19,NNW,338,0.0,0.0,41,0.00,CLR,,0.00,WeatherDisplay:10.37,2013-05-25 23:53:00,
2013-05-25 19:58:00,59.5,36.4,30.19,North,0,0.0,0.0,42,0.00,CLR,,0.00,WeatherDisplay:10.37,2013-05-25 23:58:00,
2013-05-25 20:03:00,59.2,36.1,30.19,North,0,0.0,0.0,42,0.00,CLR,,0.00,WeatherDisplay:10.37,2013-05-26 00:03:00,
2013-05-25 20:08:00,58.8,35.8,30.19,NW,315,0.0,0.0,42,0.00,CLR,,0.00,WeatherDisplay:10.37,2013-05-26 00:08:00,
2013-05-25 20:13:00,58.3,35.9,30.19,NE,45,0.0,0.0,43,0.00,CLR,,0.00,WeatherDisplay:10.37,2013-05-26 00:13:00,
2013-05-25 20:18:00,57.9,35.5,30.19,West,270,0.0,0.0,43,0.00,CLR,,0.00,WeatherDisplay:10.37,2013-05-26 00:18:00,
2013-05-25 20:23:00,57.7,36.0,30.18,NW,315,6.9,6.9,44,0.00,CLR,,0.00,WeatherDisplay:10.37,2013-05-26 00:23:00,
2013-05-25 20:28:00,57.4,35.6,30.19,NW,315,0.0,0.0,44,0.00,CLR,,0.00,WeatherDisplay:10.37,2013-05-26 00:28:00,
2013-05-25 20:33:00,57.0,35.3,30.19,WNW,292,0.0,0.0,44,0.00,CLR,,0.00,WeatherDisplay:10.37,2013-05-26 00:33:00,
2013-05-25 20:38:00,57.0,35.3,30.19,WNW,292,0.0,0.0,44,0.00,CLR,,0.00,WeatherDisplay:10.37,2013-05-26 00:38:00,
2013-05-25 20:43:00,56.5,35.4,30.19,ENE,68,4.6,4.6,45,0.00,CLR,,0.00,WeatherDisplay:10.37,2013-05-26 00:43:00,
2013-05-25 20:48:00,56.1,35.1,30.19,NE,45,0.0,0.0,45,0.00,CLR,,0.00,WeatherDisplay:10.37,2013-05-26 00:48:00,
2013-05-25 20:53:00,55.9,34.9,30.19,NE,45,0.0,0.0,45,0.00,CLR,,0.00,WeatherDisplay:10.37,2013-05-26 00:53:00,
2013-05-25 20:58:00,55.8,35.3,30.19,WNW,292,0.0,0.0,46,0.00,CLR,,0.00,WeatherDisplay:10.37,2013-05-26 00:58:00,
2013-05-25 21:03:00,55.4,34.9,30.19,WNW,292,0.0,0.0,46,0.00,CLR,,0.00,WeatherDisplay:10.37,2013-05-26 01:03:00,
2013-05-25 21:08:00,55.0,34.6,30.19,WNW,292,0.0,0.0,46,0.00,CLR,,0.00,WeatherDisplay:10.37,2013-05-26 01:08:00,
2013-05-25 21:13:00,54.7,35.4,30.19,WNW,292,0.0,0.0,48,0.00,CLR,,0.00,WeatherDisplay:10.37,2013-05-26 01:13:00,
2013-05-25 21:18:00,54.1,34.9,30.19,WNW,292,0.0,0.0,48,0.00,CLR,,0.00,WeatherDisplay:10.37,2013-05-26 01:18:00,
2013-05-25 21:23:00,53.8,35.6,30.20,WNW,292,0.0,0.0,50,0.00,CLR,,0.00,WeatherDisplay:10.37,2013-05-26 01:23:00,
2013-05-25 21:28:00,52.9,35.2,30.20,WNW,292,0.0,0.0,51,0.00,CLR,,0.00,WeatherDisplay:10.37,2013-05-26 01:28:00,
2013-05-25 21:33:00,52.9,35.2,30.20,West,270,0.0,0.0,51,0.00,CLR,,0.00,WeatherDisplay:10.37,2013-05-26 01:33:00,
2013-05-25 21:38:00,52.2,35.1,30.20,NW,315,0.0,0.0,52,0.00,CLR,,0.00,WeatherDisplay:10.37,2013-05-26 01:38:00,
2013-05-25 21:43:00,51.4,34.9,30.20,NW,315,0.0,0.0,53,0.00,CLR,,0.00,WeatherDisplay:10.37,2013-05-26 01:43:00,
2013-05-25 21:48:00,51.1,35.0,30.21,WNW,292,0.0,0.0,54,0.00,CLR,,0.00,WeatherDisplay:10.37,2013-05-26 01:48:00,
2013-05-25 21:53:00,50.7,35.1,30.21,West,270,5.8,0.0,55,0.00,CLR,,0.00,WeatherDisplay:10.37,2013-05-26 01:53:00,
2013-05-25 21:58:00,50.2,34.6,30.21,WSW,248,0.0,0.0,55,0.00,CLR,,0.00,WeatherDisplay:10.37,2013-05-26 01:58:00,
2013-05-25 22:03:00,50.2,34.6,30.21,WSW,248,0.0,0.0,55,0.00,CLR,,0.00,WeatherDisplay:10.37,2013-05-26 02:03:00,
2013-05-25 22:08:00,49.6,34.6,30.21,WSW,248,0.0,0.0,56,0.00,CLR,,0.00,WeatherDisplay:10.37,2013-05-26 02:08:00,
2013-05-25 22:13:00,49.1,34.5,30.21,WSW,248,0.0,0.0,57,0.00,CLR,,0.00,WeatherDisplay:10.37,2013-05-26 02:13:00,
2013-05-25 22:18:00,48.7,34.2,30.21,WSW,248,0.0,0.0,57,0.00,CLR,,0.00,WeatherDisplay:10.37,2013-05-26 02:18:00,
2013-05-25 22:23:00,48.6,34.4,30.21,WSW,248,0.0,0.0,58,0.00,CLR,,0.00,WeatherDisplay:10.37,2013-05-26 02:23:00,
2013-05-25 22:28:00,48.4,34.3,30.21,WSW,248,0.0,0.0,58,0.00,CLR,,0.00,WeatherDisplay:10.37,2013-05-26 02:28:00,
2013-05-25 22:33:00,47.8,34.2,30.20,SW,225,0.0,0.0,59,0.00,CLR,,0.00,WeatherDisplay:10.37,2013-05-26 02:33:00,
2013-05-25 22:38:00,47.7,34.0,30.21,SW,225,0.0,0.0,59,0.00,CLR,,0.00,WeatherDisplay:10.37,2013-05-26 02:38:00,
2013-05-25 22:43:00,47.3,34.1,30.20,SW,225,0.0,0.0,60,0.00,CLR,,0.00,WeatherDisplay:10.37,2013-05-26 02:43:00,
2013-05-25 22:48:00,47.1,34.4,30.20,SW,225,0.0,0.0,61,0.00,CLR,,0.00,WeatherDisplay:10.37,2013-05-26 02:48:00,
2013-05-25 22:53:00,46.9,34.2,30.20,SW,225,0.0,0.0,61,0.00,CLR,,0.00,WeatherDisplay:10.37,2013-05-26 02:53:00,
2013-05-25 22:58:00,46.9,34.2,30.20,SSW,202,0.0,0.0,61,0.00,CLR,,0.00,WeatherDisplay:10.37,2013-05-26 02:58:00,
2013-05-25 23:03:00,46.8,34.4,30.20,NNW,338,0.0,0.0,62,0.00,CLR,,0.00,WeatherDisplay:10.37,2013-05-26 03:03:00,
2013-05-25 23:08:00,46.8,34.8,30.21,WNW,292,0.0,0.0,63,0.00,CLR,,0.00,WeatherDisplay:10.37,2013-05-26 03:08:00,
2013-05-25 23:13:00,46.9,35.0,30.21,WNW,292,0.0,0.0,63,0.00,CLR,,0.00,WeatherDisplay:10.37,2013-05-26 03:13:00,
2013-05-25 23:18:00,46.8,34.8,30.21,WNW,292,0.0,0.0,63,0.00,CLR,,0.00,WeatherDisplay:10.37,2013-05-26 03:18:00,
2013-05-25 23:23:00,46.8,34.8,30.21,WNW,292,0.0,0.0,63,0.00,CLR,,0.00,WeatherDisplay:10.37,2013-05-26 03:23:00,
2013-05-25 23:28:00,46.6,34.7,30.21,WNW,292,0.0,0.0,63,0.00,CLR,,0.00,WeatherDisplay:10.37,2013-05-26 03:28:00,
2013-05-25 23:33:00,46.2,34.7,30.21,WNW,292,0.0,0.0,64,0.00,CLR,,0.00,WeatherDisplay:10.37,2013-05-26 03:33:00,
2013-05-25 23:38:00,46.2,34.7,30.21,WNW,292,0.0,0.0,64,0.00,CLR,,0.00,WeatherDisplay:10.37,2013-05-26 03:38:00,
2013-05-25 23:43:00,46.0,34.5,30.21,WNW,292,0.0,0.0,64,0.00,CLR,,0.00,WeatherDisplay:10.37,2013-05-26 03:43:00,
2013-05-25 23:48:00,45.7,34.6,30.22,WNW,292,0.0,0.0,65,0.00,CLR,,0.00,WeatherDisplay:10.37,2013-05-26 03:48:00,
2013-05-25 23:53:00,45.7,34.6,30.22,WNW,292,0.0,0.0,65,0.00,CLR,,0.00,WeatherDisplay:10.37,2013-05-26 03:53:00,
2013-05-25 23:58:00,45.3,34.2,30.21,WNW,292,0.0,0.0,65,0.00,CLR,,0.00,WeatherDisplay:10.37,2013-05-26 03:58:00,